sensor_id;sensor_type;location;lat;lon;timestamp;pressure;altitude;pressure_sealevel;temperature;humidity
1926;BME280;964;42.606;23.588;2022-07-22T00:01:55;94606.53;;;38.99;24.90
1926;BME280;964;42.606;23.588;2022-07-22T00:04:23;94613.97;;;38.52;25.25
1926;BME280;964;42.606;23.588;2022-07-22T00:06:50;94612.75;;;38.02;26.21
1926;BME280;964;42.606;23.588;2022-07-22T00:09:17;94607.38;;;38.81;25.56
1926;BME280;964;42.606;23.588;2022-07-22T00:11:44;94595.66;;;39.14;24.94
1926;BME280;964;42.606;23.588;2022-07-22T00:14:10;94600.09;;;39.44;24.46
1926;BME280;964;42.606;23.588;2022-07-22T00:16:38;94598.16;;;39.52;24.50
1926;BME280;964;42.606;23.588;2022-07-22T00:19:05;94594.66;;;39.51;24.41
1926;BME280;964;42.606;23.588;2022-07-22T00:21:33;94603.41;;;39.89;24.05
1926;BME280;964;42.606;23.588;2022-07-22T00:24:00;94599.81;;;39.81;23.84
1926;BME280;964;42.606;23.588;2022-07-22T00:26:26;94594.97;;;39.48;24.76
1926;BME280;964;42.606;23.588;2022-07-22T00:28:53;94599.28;;;39.69;24.21
1926;BME280;964;42.606;23.588;2022-07-22T00:31:20;94600.34;;;39.19;25.21
1926;BME280;964;42.606;23.588;2022-07-22T00:33:47;94599.47;;;39.24;25.39
1926;BME280;964;42.606;23.588;2022-07-22T00:36:14;94600.47;;;39.01;24.98
1926;BME280;964;42.606;23.588;2022-07-22T00:38:42;94606.06;;;38.43;25.16
1926;BME280;964;42.606;23.588;2022-07-22T00:41:09;94609.50;;;38.75;25.65
1926;BME280;964;42.606;23.588;2022-07-22T00:43:49;94609.22;;;37.70;26.94
1926;BME280;964;42.606;23.588;2022-07-22T00:46:16;94611.13;;;37.38;27.29
1926;BME280;964;42.606;23.588;2022-07-22T00:48:43;94602.94;;;38.33;25.52
1926;BME280;964;42.606;23.588;2022-07-22T00:51:10;94585.81;;;39.53;24.44
1926;BME280;964;42.606;23.588;2022-07-22T00:53:37;94594.72;;;39.59;24.04
1926;BME280;964;42.606;23.588;2022-07-22T00:56:06;94593.91;;;40.19;24.03
1926;BME280;964;42.606;23.588;2022-07-22T00:58:33;94595.53;;;40.01;24.17
1926;BME280;964;42.606;23.588;2022-07-22T01:01:00;94591.50;;;39.68;24.66
1926;BME280;964;42.606;23.588;2022-07-22T01:03:26;94594.97;;;39.48;25.02
1926;BME280;964;42.606;23.588;2022-07-22T01:05:53;94590.00;;;39.67;25.45
1926;BME280;964;42.606;23.588;2022-07-22T01:08:20;94591.97;;;39.46;25.82
1926;BME280;964;42.606;23.588;2022-07-22T01:10:47;94595.28;;;39.91;24.96
1926;BME280;964;42.606;23.588;2022-07-22T01:13:15;94594.44;;;39.49;25.77
1926;BME280;964;42.606;23.588;2022-07-22T01:15:42;94587.13;;;39.12;26.03
1926;BME280;964;42.606;23.588;2022-07-22T01:18:09;94592.69;;;38.86;26.03
1926;BME280;964;42.606;23.588;2022-07-22T01:20:37;94592.03;;;38.67;25.61
1926;BME280;964;42.606;23.588;2022-07-22T01:23:04;94587.16;;;38.86;25.71
1926;BME280;964;42.606;23.588;2022-07-22T01:25:31;94593.31;;;38.53;26.25
1926;BME280;964;42.606;23.588;2022-07-22T01:27:57;94586.28;;;38.65;26.04
1926;BME280;964;42.606;23.588;2022-07-22T01:30:24;94590.53;;;38.79;25.67
1926;BME280;964;42.606;23.588;2022-07-22T01:32:51;94591.41;;;39.27;24.80
1926;BME280;964;42.606;23.588;2022-07-22T01:35:17;94587.75;;;39.45;24.62
1926;BME280;964;42.606;23.588;2022-07-22T01:37:45;94584.16;;;38.84;25.81
1926;BME280;964;42.606;23.588;2022-07-22T01:40:12;94589.06;;;38.65;26.18
1926;BME280;964;42.606;23.588;2022-07-22T01:42:39;94597.81;;;38.37;26.89
1926;BME280;964;42.606;23.588;2022-07-22T01:45:07;94588.72;;;38.10;27.26
1926;BME280;964;42.606;23.588;2022-07-22T01:47:33;94590.06;;;38.36;26.79
1926;BME280;964;42.606;23.588;2022-07-22T01:50:00;94597.88;;;38.63;26.10
1926;BME280;964;42.606;23.588;2022-07-22T01:52:27;94592.22;;;38.56;26.60
1926;BME280;964;42.606;23.588;2022-07-22T01:54:55;94579.25;;;38.51;26.51
1926;BME280;964;42.606;23.588;2022-07-22T01:57:22;94593.53;;;38.68;26.28
1926;BME280;964;42.606;23.588;2022-07-22T01:59:49;94589.06;;;38.91;25.70
1926;BME280;964;42.606;23.588;2022-07-22T02:02:15;94597.59;;;39.06;25.35
1926;BME280;964;42.606;23.588;2022-07-22T02:04:42;94600.22;;;38.46;26.65
1926;BME280;964;42.606;23.588;2022-07-22T02:07:09;94596.91;;;38.48;26.77
1926;BME280;964;42.606;23.588;2022-07-22T02:09:36;94596.00;;;38.26;26.70
1926;BME280;964;42.606;23.588;2022-07-22T02:12:04;94599.38;;;38.19;27.16
1926;BME280;964;42.606;23.588;2022-07-22T02:14:32;94605.09;;;38.08;27.28
1926;BME280;964;42.606;23.588;2022-07-22T02:16:58;94589.50;;;38.69;26.03
1926;BME280;964;42.606;23.588;2022-07-22T02:19:25;94598.84;;;38.53;26.27
1926;BME280;964;42.606;23.588;2022-07-22T02:21:52;94605.03;;;38.72;26.04
1926;BME280;964;42.606;23.588;2022-07-22T02:24:19;94601.97;;;38.89;25.91
1926;BME280;964;42.606;23.588;2022-07-22T02:26:46;94613.41;;;37.58;27.04
1926;BME280;964;42.606;23.588;2022-07-22T02:29:14;94618.59;;;36.57;28.59
1926;BME280;964;42.606;23.588;2022-07-22T02:31:40;94620.09;;;37.44;27.33
1926;BME280;964;42.606;23.588;2022-07-22T02:34:07;94615.66;;;37.59;26.68
1926;BME280;964;42.606;23.588;2022-07-22T02:36:34;94618.13;;;37.63;27.24
1926;BME280;964;42.606;23.588;2022-07-22T02:39:02;94617.41;;;37.94;26.58
1926;BME280;964;42.606;23.588;2022-07-22T02:41:29;94622.34;;;38.01;26.67
1926;BME280;964;42.606;23.588;2022-07-22T02:43:55;94613.78;;;37.49;26.51
1926;BME280;964;42.606;23.588;2022-07-22T02:46:25;94606.19;;;37.68;26.59
1926;BME280;964;42.606;23.588;2022-07-22T02:48:53;94618.66;;;37.93;26.44
1926;BME280;964;42.606;23.588;2022-07-22T02:51:20;94606.63;;;37.91;26.85
1926;BME280;964;42.606;23.588;2022-07-22T02:53:47;94608.75;;;37.66;26.95
1926;BME280;964;42.606;23.588;2022-07-22T02:56:14;94607.84;;;37.95;26.74
1926;BME280;964;42.606;23.588;2022-07-22T02:58:41;94595.97;;;38.58;25.73
1926;BME280;964;42.606;23.588;2022-07-22T03:01:08;94602.19;;;39.04;25.36
1926;BME280;964;42.606;23.588;2022-07-22T03:03:36;94603.97;;;39.14;25.00
1926;BME280;964;42.606;23.588;2022-07-22T03:06:05;94607.16;;;39.18;25.04
1926;BME280;964;42.606;23.588;2022-07-22T03:08:32;94609.06;;;38.45;25.83
1926;BME280;964;42.606;23.588;2022-07-22T03:10:59;94608.88;;;38.69;25.05
1926;BME280;964;42.606;23.588;2022-07-22T03:13:26;94608.44;;;38.78;24.82
1926;BME280;964;42.606;23.588;2022-07-22T03:15:52;94603.75;;;38.60;25.23
1926;BME280;964;42.606;23.588;2022-07-22T03:18:19;94606.31;;;38.58;24.88
1926;BME280;964;42.606;23.588;2022-07-22T03:20:48;94598.88;;;39.05;24.89
1926;BME280;964;42.606;23.588;2022-07-22T03:23:15;94599.69;;;39.40;24.53
1926;BME280;964;42.606;23.588;2022-07-22T03:25:41;94608.91;;;39.08;24.81
1926;BME280;964;42.606;23.588;2022-07-22T03:28:08;94611.66;;;38.95;24.98
1926;BME280;964;42.606;23.588;2022-07-22T03:30:35;94610.19;;;38.94;24.79
1926;BME280;964;42.606;23.588;2022-07-22T03:33:01;94616.78;;;39.04;24.96
1926;BME280;964;42.606;23.588;2022-07-22T03:35:28;94618.28;;;38.92;25.07
1926;BME280;964;42.606;23.588;2022-07-22T03:37:56;94606.09;;;39.21;24.87
1926;BME280;964;42.606;23.588;2022-07-22T03:40:23;94615.69;;;38.68;25.41
1926;BME280;964;42.606;23.588;2022-07-22T03:42:50;94606.53;;;38.99;24.74
1926;BME280;964;42.606;23.588;2022-07-22T03:45:17;94616.91;;;38.41;25.14
1926;BME280;964;42.606;23.588;2022-07-22T03:47:43;94618.06;;;39.03;24.93
1926;BME280;964;42.606;23.588;2022-07-22T03:50:10;94624.22;;;39.09;24.86
1926;BME280;964;42.606;23.588;2022-07-22T03:52:37;94626.81;;;38.94;25.09
1926;BME280;964;42.606;23.588;2022-07-22T03:55:06;94626.78;;;39.20;24.89
1926;BME280;964;42.606;23.588;2022-07-22T03:57:33;94627.00;;;39.49;24.42
1926;BME280;964;42.606;23.588;2022-07-22T04:00:00;94631.19;;;38.90;25.13
1926;BME280;964;42.606;23.588;2022-07-22T04:02:26;94638.09;;;38.96;25.23
1926;BME280;964;42.606;23.588;2022-07-22T04:04:53;94643.00;;;39.03;25.04
1926;BME280;964;42.606;23.588;2022-07-22T04:07:20;94647.47;;;39.06;25.12
1926;BME280;964;42.606;23.588;2022-07-22T04:09:46;94638.13;;;38.51;25.78
1926;BME280;964;42.606;23.588;2022-07-22T04:12:15;94643.16;;;38.53;25.91
1926;BME280;964;42.606;23.588;2022-07-22T04:14:42;94646.41;;;38.38;25.35
1926;BME280;964;42.606;23.588;2022-07-22T04:17:09;94652.97;;;38.54;25.36
1926;BME280;964;42.606;23.588;2022-07-22T04:19:36;94640.00;;;38.75;24.92
1926;BME280;964;42.606;23.588;2022-07-22T04:22:03;94642.72;;;38.62;25.28
1926;BME280;964;42.606;23.588;2022-07-22T04:24:30;94640.63;;;38.81;24.65
1926;BME280;964;42.606;23.588;2022-07-22T04:26:56;94643.59;;;38.70;24.76
1926;BME280;964;42.606;23.588;2022-07-22T04:29:24;94650.22;;;38.67;25.25
1926;BME280;964;42.606;23.588;2022-07-22T04:31:51;94663.06;;;38.96;24.98
1926;BME280;964;42.606;23.588;2022-07-22T04:34:19;94660.28;;;39.36;24.49
1926;BME280;964;42.606;23.588;2022-07-22T04:36:45;94659.84;;;39.32;24.75
1926;BME280;964;42.606;23.588;2022-07-22T04:39:12;94656.84;;;39.56;24.66
1926;BME280;964;42.606;23.588;2022-07-22T04:41:39;94654.69;;;39.62;24.61
1926;BME280;964;42.606;23.588;2022-07-22T04:44:05;94657.56;;;40.16;24.27
1926;BME280;964;42.606;23.588;2022-07-22T04:46:34;94658.78;;;40.29;23.92
1926;BME280;964;42.606;23.588;2022-07-22T04:49:00;94657.69;;;40.32;23.78
1926;BME280;964;42.606;23.588;2022-07-22T04:51:27;94661.63;;;40.57;24.04
1926;BME280;964;42.606;23.588;2022-07-22T04:53:54;94666.75;;;40.53;24.29
1926;BME280;964;42.606;23.588;2022-07-22T04:56:21;94671.88;;;39.74;24.02
1926;BME280;964;42.606;23.588;2022-07-22T04:58:48;94659.06;;;40.17;24.13
1926;BME280;964;42.606;23.588;2022-07-22T05:01:15;94663.59;;;40.28;23.93
1926;BME280;964;42.606;23.588;2022-07-22T05:03:43;94670.38;;;40.61;23.86
1926;BME280;964;42.606;23.588;2022-07-22T05:06:10;94670.81;;;40.52;23.73
1926;BME280;964;42.606;23.588;2022-07-22T05:08:37;94667.09;;;40.91;23.64
1926;BME280;964;42.606;23.588;2022-07-22T05:11:03;94678.09;;;40.76;23.40
1926;BME280;964;42.606;23.588;2022-07-22T05:13:30;94671.69;;;41.09;22.97
1926;BME280;964;42.606;23.588;2022-07-22T05:15:57;94667.44;;;41.44;22.60
1926;BME280;964;42.606;23.588;2022-07-22T05:18:23;94676.53;;;40.67;23.48
1926;BME280;964;42.606;23.588;2022-07-22T05:20:51;94668.94;;;41.45;22.94
1926;BME280;964;42.606;23.588;2022-07-22T05:23:18;94667.94;;;41.78;21.91
1926;BME280;964;42.606;23.588;2022-07-22T05:25:45;94671.16;;;41.97;22.18
1926;BME280;964;42.606;23.588;2022-07-22T05:28:11;94668.38;;;41.97;22.06
1926;BME280;964;42.606;23.588;2022-07-22T05:30:38;94672.28;;;41.94;22.12
1926;BME280;964;42.606;23.588;2022-07-22T05:33:05;94669.03;;;42.41;21.70
1926;BME280;964;42.606;23.588;2022-07-22T05:35:32;94672.22;;;42.61;22.13
1926;BME280;964;42.606;23.588;2022-07-22T05:38:00;94674.13;;;42.81;21.20
1926;BME280;964;42.606;23.588;2022-07-22T05:40:27;94668.91;;;42.70;21.87
1926;BME280;964;42.606;23.588;2022-07-22T05:42:54;94677.44;;;42.64;21.49
1926;BME280;964;42.606;23.588;2022-07-22T05:45:20;94672.16;;;43.29;21.45
1926;BME280;964;42.606;23.588;2022-07-22T05:47:47;94678.50;;;42.31;21.40
1926;BME280;964;42.606;23.588;2022-07-22T05:50:14;94671.50;;;42.90;21.42
1926;BME280;964;42.606;23.588;2022-07-22T05:52:41;94670.72;;;43.28;21.19
1926;BME280;964;42.606;23.588;2022-07-22T05:55:09;94673.34;;;43.11;21.43
1926;BME280;964;42.606;23.588;2022-07-22T05:57:36;94669.31;;;43.59;21.11
1926;BME280;964;42.606;23.588;2022-07-22T06:00:04;94671.22;;;43.49;21.31
1926;BME280;964;42.606;23.588;2022-07-22T06:02:31;94670.63;;;43.58;21.13
1926;BME280;964;42.606;23.588;2022-07-22T06:04:58;94674.03;;;44.29;21.24
1926;BME280;964;42.606;23.588;2022-07-22T06:07:25;94666.25;;;43.80;21.58
1926;BME280;964;42.606;23.588;2022-07-22T06:09:52;94676.47;;;44.25;20.77
1926;BME280;964;42.606;23.588;2022-07-22T06:12:21;94666.25;;;44.77;20.13
1926;BME280;964;42.606;23.588;2022-07-22T06:14:47;94665.16;;;44.72;20.10
1926;BME280;964;42.606;23.588;2022-07-22T06:17:14;94667.38;;;44.74;19.70
1926;BME280;964;42.606;23.588;2022-07-22T06:19:41;94664.91;;;45.03;19.98
1926;BME280;964;42.606;23.588;2022-07-22T06:22:07;94666.50;;;45.65;20.40
1926;BME280;964;42.606;23.588;2022-07-22T06:24:35;94662.47;;;45.75;19.15
1926;BME280;964;42.606;23.588;2022-07-22T06:27:02;94667.06;;;46.07;19.68
1926;BME280;964;42.606;23.588;2022-07-22T06:29:30;94661.91;;;46.04;19.33
1926;BME280;964;42.606;23.588;2022-07-22T06:31:57;94655.78;;;46.15;18.77
1926;BME280;964;42.606;23.588;2022-07-22T06:34:23;94657.09;;;46.14;19.69
1926;BME280;964;42.606;23.588;2022-07-22T06:36:50;94664.53;;;45.41;19.32
1926;BME280;964;42.606;23.588;2022-07-22T06:39:17;94657.97;;;46.43;19.40
1926;BME280;964;42.606;23.588;2022-07-22T06:41:44;94654.63;;;46.18;18.80
1926;BME280;964;42.606;23.588;2022-07-22T06:44:10;94651.16;;;46.73;18.67
1926;BME280;964;42.606;23.588;2022-07-22T06:46:39;94654.66;;;46.54;18.99
1926;BME280;964;42.606;23.588;2022-07-22T06:49:05;94649.28;;;45.68;19.37
1926;BME280;964;42.606;23.588;2022-07-22T06:51:33;94659.50;;;45.56;19.37
1926;BME280;964;42.606;23.588;2022-07-22T06:54:00;94654.56;;;46.08;19.39
1926;BME280;964;42.606;23.588;2022-07-22T06:56:27;94659.47;;;46.17;19.52
1926;BME280;964;42.606;23.588;2022-07-22T06:58:53;94661.66;;;46.82;19.20
1926;BME280;964;42.606;23.588;2022-07-22T07:01:20;94662.78;;;45.62;19.31
1926;BME280;964;42.606;23.588;2022-07-22T07:03:48;94669.72;;;45.61;19.77
1926;BME280;964;42.606;23.588;2022-07-22T07:06:15;94665.25;;;45.75;18.89
1926;BME280;964;42.606;23.588;2022-07-22T07:08:42;94668.97;;;45.78;20.08
1926;BME280;964;42.606;23.588;2022-07-22T07:11:09;94666.22;;;45.70;19.92
1926;BME280;964;42.606;23.588;2022-07-22T07:13:35;94661.66;;;46.46;19.03
1926;BME280;964;42.606;23.588;2022-07-22T07:16:03;94658.06;;;45.82;19.96
1926;BME280;964;42.606;23.588;2022-07-22T07:18:29;94663.13;;;46.73;18.87
1926;BME280;964;42.606;23.588;2022-07-22T07:20:57;94666.56;;;46.82;19.75
1926;BME280;964;42.606;23.588;2022-07-22T07:23:24;94666.91;;;47.05;19.52
1926;BME280;964;42.606;23.588;2022-07-22T07:25:51;94667.69;;;46.78;19.15
1926;BME280;964;42.606;23.588;2022-07-22T07:28:18;94671.69;;;46.75;19.53
1926;BME280;964;42.606;23.588;2022-07-22T07:30:45;94668.22;;;46.94;18.34
1926;BME280;964;42.606;23.588;2022-07-22T07:33:11;94671.16;;;46.87;18.78
1926;BME280;964;42.606;23.588;2022-07-22T07:35:38;94664.00;;;47.41;19.64
1926;BME280;964;42.606;23.588;2022-07-22T07:38:06;94662.16;;;48.32;18.00
1926;BME280;964;42.606;23.588;2022-07-22T07:40:33;94655.25;;;48.64;17.79
1926;BME280;964;42.606;23.588;2022-07-22T07:43:00;94659.09;;;47.90;18.67
1926;BME280;964;42.606;23.588;2022-07-22T07:45:27;94658.72;;;48.24;18.28
1926;BME280;964;42.606;23.588;2022-07-22T07:47:54;94671.25;;;48.02;17.71
1926;BME280;964;42.606;23.588;2022-07-22T07:50:20;94670.19;;;48.16;18.23
1926;BME280;964;42.606;23.588;2022-07-22T07:52:47;94661.03;;;48.56;17.75
1926;BME280;964;42.606;23.588;2022-07-22T07:55:15;94671.94;;;48.31;17.95
1926;BME280;964;42.606;23.588;2022-07-22T07:57:42;94669.50;;;47.58;18.16
1926;BME280;964;42.606;23.588;2022-07-22T08:00:12;94673.31;;;47.53;18.31
1926;BME280;964;42.606;23.588;2022-07-22T08:02:40;94657.88;;;48.31;17.43
1926;BME280;964;42.606;23.588;2022-07-22T08:05:07;94652.31;;;48.52;17.68
1926;BME280;964;42.606;23.588;2022-07-22T08:07:34;94662.31;;;48.34;17.87
1926;BME280;964;42.606;23.588;2022-07-22T08:10:03;94654.59;;;48.25;17.37
1926;BME280;964;42.606;23.588;2022-07-22T08:12:31;94657.03;;;48.50;16.97
1926;BME280;964;42.606;23.588;2022-07-22T08:14:58;94656.19;;;49.51;16.45
1926;BME280;964;42.606;23.588;2022-07-22T08:17:25;94652.97;;;49.03;17.03
1926;BME280;964;42.606;23.588;2022-07-22T08:19:52;94658.72;;;49.47;16.63
1926;BME280;964;42.606;23.588;2022-07-22T08:22:18;94654.09;;;50.29;16.67
1926;BME280;964;42.606;23.588;2022-07-22T08:24:45;94647.66;;;49.40;16.40
1926;BME280;964;42.606;23.588;2022-07-22T08:27:12;94645.97;;;49.46;16.94
1926;BME280;964;42.606;23.588;2022-07-22T08:29:40;94643.78;;;50.34;15.90
1926;BME280;964;42.606;23.588;2022-07-22T08:32:06;94649.88;;;49.41;16.84
1926;BME280;964;42.606;23.588;2022-07-22T08:34:33;94657.50;;;49.50;17.01
1926;BME280;964;42.606;23.588;2022-07-22T08:37:00;94645.03;;;49.53;16.52
1926;BME280;964;42.606;23.588;2022-07-22T08:39:27;94654.38;;;50.57;15.75
1926;BME280;964;42.606;23.588;2022-07-22T08:41:55;94650.94;;;50.46;16.24
1926;BME280;964;42.606;23.588;2022-07-22T08:44:23;94653.56;;;51.37;15.99
1926;BME280;964;42.606;23.588;2022-07-22T08:46:51;94660.75;;;50.69;15.72
1926;BME280;964;42.606;23.588;2022-07-22T08:49:18;94650.31;;;50.60;17.58
1926;BME280;964;42.606;23.588;2022-07-22T08:51:45;94660.25;;;50.37;16.04
1926;BME280;964;42.606;23.588;2022-07-22T08:54:12;94662.47;;;50.50;15.74
1926;BME280;964;42.606;23.588;2022-07-22T08:56:39;94653.91;;;50.72;16.20
1926;BME280;964;42.606;23.588;2022-07-22T08:59:08;94655.16;;;51.40;15.86
1926;BME280;964;42.606;23.588;2022-07-22T09:01:34;94653.06;;;52.03;14.73
1926;BME280;964;42.606;23.588;2022-07-22T09:04:03;94653.41;;;52.62;15.19
1926;BME280;964;42.606;23.588;2022-07-22T09:06:32;94653.50;;;52.50;14.21
1926;BME280;964;42.606;23.588;2022-07-22T09:09:09;94653.31;;;52.60;14.68
1926;BME280;964;42.606;23.588;2022-07-22T09:11:36;94654.78;;;52.22;14.39
1926;BME280;964;42.606;23.588;2022-07-22T09:14:02;94662.44;;;51.94;15.31
1926;BME280;964;42.606;23.588;2022-07-22T09:16:39;94652.53;;;52.07;14.65
1926;BME280;964;42.606;23.588;2022-07-22T09:19:08;94650.66;;;52.36;14.65
1926;BME280;964;42.606;23.588;2022-07-22T09:21:38;94661.31;;;52.77;14.28
1926;BME280;964;42.606;23.588;2022-07-22T09:24:06;94654.09;;;53.01;14.14
1926;BME280;964;42.606;23.588;2022-07-22T09:26:34;94658.94;;;52.07;14.28
1926;BME280;964;42.606;23.588;2022-07-22T09:29:03;94660.38;;;52.86;14.27
1926;BME280;964;42.606;23.588;2022-07-22T09:31:32;94654.41;;;53.07;14.53
1926;BME280;964;42.606;23.588;2022-07-22T09:34:00;94642.81;;;53.17;13.90
1926;BME280;964;42.606;23.588;2022-07-22T09:36:29;94642.84;;;53.60;13.43
1926;BME280;964;42.606;23.588;2022-07-22T09:38:58;94656.50;;;52.79;13.87
1926;BME280;964;42.606;23.588;2022-07-22T09:41:24;94657.19;;;52.80;14.38
1926;BME280;964;42.606;23.588;2022-07-22T09:43:51;94649.88;;;53.02;13.90
1926;BME280;964;42.606;23.588;2022-07-22T09:46:32;94640.09;;;54.52;14.05
1926;BME280;964;42.606;23.588;2022-07-22T09:49:00;94633.31;;;54.27;13.78
1926;BME280;964;42.606;23.588;2022-07-22T09:51:28;94639.63;;;53.52;13.63
1926;BME280;964;42.606;23.588;2022-07-22T09:53:56;94644.72;;;52.85;14.17
1926;BME280;964;42.606;23.588;2022-07-22T09:56:23;94648.41;;;53.58;13.39
1926;BME280;964;42.606;23.588;2022-07-22T09:58:50;94645.13;;;53.77;13.47
1926;BME280;964;42.606;23.588;2022-07-22T10:01:17;94633.81;;;54.69;13.63
1926;BME280;964;42.606;23.588;2022-07-22T10:03:45;94635.09;;;55.66;13.45
1926;BME280;964;42.606;23.588;2022-07-22T10:06:15;94631.03;;;55.71;13.02
1926;BME280;964;42.606;23.588;2022-07-22T10:08:43;94645.19;;;53.50;14.77
1926;BME280;964;42.606;23.588;2022-07-22T10:11:11;94646.88;;;53.27;14.43
1926;BME280;964;42.606;23.588;2022-07-22T10:13:38;94633.09;;;53.06;14.00
1926;BME280;964;42.606;23.588;2022-07-22T10:16:06;94635.34;;;54.25;13.98
1926;BME280;964;42.606;23.588;2022-07-22T10:18:34;94634.03;;;53.54;14.18
1926;BME280;964;42.606;23.588;2022-07-22T10:21:03;94637.94;;;53.47;14.89
1926;BME280;964;42.606;23.588;2022-07-22T10:23:30;94629.31;;;54.33;14.83
1926;BME280;964;42.606;23.588;2022-07-22T10:26:00;94628.53;;;54.16;14.66
1926;BME280;964;42.606;23.588;2022-07-22T10:28:29;94625.47;;;54.42;13.73
1926;BME280;964;42.606;23.588;2022-07-22T10:31:17;94624.63;;;54.55;13.94
1926;BME280;964;42.606;23.588;2022-07-22T10:33:45;94630.47;;;54.90;13.67
1926;BME280;964;42.606;23.588;2022-07-22T10:36:14;94632.78;;;54.47;14.22
1926;BME280;964;42.606;23.588;2022-07-22T10:39:03;94635.59;;;53.57;14.46
1926;BME280;964;42.606;23.588;2022-07-22T10:41:33;94631.31;;;53.56;14.71
1926;BME280;964;42.606;23.588;2022-07-22T10:44:00;94637.72;;;52.86;14.71
1926;BME280;964;42.606;23.588;2022-07-22T10:46:47;94638.25;;;53.53;14.74
1926;BME280;964;42.606;23.588;2022-07-22T10:49:15;94629.59;;;53.94;15.73
1926;BME280;964;42.606;23.588;2022-07-22T10:52:10;94640.34;;;52.82;14.61
1926;BME280;964;42.606;23.588;2022-07-22T10:55:16;94626.34;;;53.99;13.03
1926;BME280;964;42.606;23.588;2022-07-22T10:57:44;94628.97;;;53.95;13.53
1926;BME280;964;42.606;23.588;2022-07-22T11:00:12;94627.81;;;53.14;15.13
1926;BME280;964;42.606;23.588;2022-07-22T11:02:39;94631.50;;;52.49;14.24
1926;BME280;964;42.606;23.588;2022-07-22T11:05:07;94615.38;;;54.70;13.80
1926;BME280;964;42.606;23.588;2022-07-22T11:07:41;94618.59;;;53.57;13.85
1926;BME280;964;42.606;23.588;2022-07-22T11:10:13;94621.53;;;53.16;14.08
1926;BME280;964;42.606;23.588;2022-07-22T11:12:40;94611.63;;;53.89;13.45
1926;BME280;964;42.606;23.588;2022-07-22T11:15:09;94606.78;;;55.35;13.19
1926;BME280;964;42.606;23.588;2022-07-22T11:17:37;94600.78;;;55.97;14.00
1926;BME280;964;42.606;23.588;2022-07-22T11:20:05;94598.38;;;55.54;13.23
1926;BME280;964;42.606;23.588;2022-07-22T11:22:33;94607.41;;;55.15;13.10
1926;BME280;964;42.606;23.588;2022-07-22T11:25:00;94605.06;;;55.28;12.41
1926;BME280;964;42.606;23.588;2022-07-22T11:27:27;94604.47;;;55.13;12.00
1926;BME280;964;42.606;23.588;2022-07-22T11:29:54;94607.88;;;54.14;12.92
1926;BME280;964;42.606;23.588;2022-07-22T11:32:24;94612.31;;;53.15;14.09
1926;BME280;964;42.606;23.588;2022-07-22T11:34:53;94608.25;;;54.38;12.24
1926;BME280;964;42.606;23.588;2022-07-22T11:37:21;94615.19;;;54.66;13.12
1926;BME280;964;42.606;23.588;2022-07-22T11:39:49;94605.66;;;54.28;13.07
1926;BME280;964;42.606;23.588;2022-07-22T11:42:17;94612.63;;;53.51;13.49
1926;BME280;964;42.606;23.588;2022-07-22T11:44:44;94607.38;;;54.82;12.86
1926;BME280;964;42.606;23.588;2022-07-22T11:47:11;94629.41;;;52.76;13.78
1926;BME280;964;42.606;23.588;2022-07-22T11:49:39;94615.56;;;53.53;12.75
1926;BME280;964;42.606;23.588;2022-07-22T11:52:08;94616.75;;;54.06;13.99
1926;BME280;964;42.606;23.588;2022-07-22T11:54:37;94607.63;;;54.88;12.83
1926;BME280;964;42.606;23.588;2022-07-22T11:57:05;94606.47;;;55.27;12.44
1926;BME280;964;42.606;23.588;2022-07-22T11:59:33;94607.19;;;54.78;12.82
1926;BME280;964;42.606;23.588;2022-07-22T12:02:02;94611.88;;;54.24;12.47
1926;BME280;964;42.606;23.588;2022-07-22T12:04:30;94611.81;;;53.77;12.96
1926;BME280;964;42.606;23.588;2022-07-22T12:07:00;94614.28;;;55.10;13.05
1926;BME280;964;42.606;23.588;2022-07-22T12:09:31;94613.75;;;55.32;12.67
1926;BME280;964;42.606;23.588;2022-07-22T12:11:58;94608.06;;;54.49;12.98
1926;BME280;964;42.606;23.588;2022-07-22T12:14:27;94600.47;;;55.89;12.57
1926;BME280;964;42.606;23.588;2022-07-22T12:16:56;94600.81;;;55.62;13.58
1926;BME280;964;42.606;23.588;2022-07-22T12:19:23;94604.41;;;53.57;13.73
1926;BME280;964;42.606;23.588;2022-07-22T12:21:53;94597.91;;;54.29;13.91
1926;BME280;964;42.606;23.588;2022-07-22T12:24:30;94597.44;;;54.50;13.77
1926;BME280;964;42.606;23.588;2022-07-22T12:26:59;94595.00;;;55.42;12.78
1926;BME280;964;42.606;23.588;2022-07-22T12:29:27;94596.88;;;54.53;13.09
1926;BME280;964;42.606;23.588;2022-07-22T12:31:57;94601.03;;;54.84;13.11
1926;BME280;964;42.606;23.588;2022-07-22T12:34:33;94603.59;;;54.29;13.24
1926;BME280;964;42.606;23.588;2022-07-22T12:37:11;94605.69;;;53.54;13.68
1926;BME280;964;42.606;23.588;2022-07-22T12:39:39;94605.28;;;54.04;13.89
1926;BME280;964;42.606;23.588;2022-07-22T12:42:16;94601.81;;;54.37;13.96
1926;BME280;964;42.606;23.588;2022-07-22T12:44:50;94594.53;;;54.81;13.17
1926;BME280;964;42.606;23.588;2022-07-22T12:47:17;94597.88;;;54.60;13.65
1926;BME280;964;42.606;23.588;2022-07-22T12:50:18;94596.09;;;53.90;13.80
1926;BME280;964;42.606;23.588;2022-07-22T12:52:45;94593.56;;;54.27;13.70
1926;BME280;964;42.606;23.588;2022-07-22T12:55:14;94590.09;;;54.45;12.91
1926;BME280;964;42.606;23.588;2022-07-22T12:57:41;94589.91;;;54.25;13.18
1926;BME280;964;42.606;23.588;2022-07-22T13:00:08;94589.91;;;54.41;13.44
1926;BME280;964;42.606;23.588;2022-07-22T13:02:35;94584.91;;;54.88;12.92
1926;BME280;964;42.606;23.588;2022-07-22T13:05:03;94591.66;;;54.48;13.16
1926;BME280;964;42.606;23.588;2022-07-22T13:07:29;94591.47;;;55.08;13.24
1926;BME280;964;42.606;23.588;2022-07-22T13:09:56;94596.69;;;54.49;13.61
1926;BME280;964;42.606;23.588;2022-07-22T13:12:24;94596.66;;;52.87;13.95
1926;BME280;964;42.606;23.588;2022-07-22T13:14:51;94593.75;;;54.00;14.41
1926;BME280;964;42.606;23.588;2022-07-22T13:17:17;94592.00;;;54.56;13.94
1926;BME280;964;42.606;23.588;2022-07-22T13:19:44;94591.00;;;53.14;14.02
1926;BME280;964;42.606;23.588;2022-07-22T13:22:11;94607.59;;;53.49;14.01
1926;BME280;964;42.606;23.588;2022-07-22T13:24:38;94598.00;;;55.29;14.97
1926;BME280;964;42.606;23.588;2022-07-22T13:27:05;94599.22;;;54.59;12.85